createdAt,value
2022-09-01T00:00:13.608Z,73.60
2022-09-01T00:02:43.493Z,73.70
2022-09-01T00:05:11.164Z,74.70
2022-09-01T00:07:38.644Z,75.70
2022-09-01T00:10:07.860Z,75.90
2022-09-01T00:12:36.024Z,76.70
2022-09-01T00:15:05.965Z,78.20
2022-09-01T00:17:34.105Z,79.10
2022-09-01T00:20:01.454Z,80.70
2022-09-01T00:22:29.818Z,81.70
2022-09-01T00:24:57.183Z,83.10
2022-09-01T00:27:27.900Z,84.70
2022-09-01T00:29:59.607Z,86.40
2022-09-01T00:32:28.032Z,88.90
2022-09-01T00:34:55.936Z,90.00
2022-09-01T00:37:23.474Z,90.70
2022-09-01T00:39:50.864Z,91.90
2022-09-01T00:42:18.594Z,93.30
2022-09-01T00:44:45.945Z,94.10
2022-09-01T00:47:15.154Z,95.60
2022-09-01T00:49:46.808Z,96.80
2022-09-01T00:52:28.768Z,97.90
2022-09-01T00:55:08.889Z,97.20
2022-09-01T00:57:36.556Z,96.50
2022-09-01T01:00:26.835Z,97.10
2022-09-01T01:02:56.801Z,98.00
2022-09-01T01:05:34.366Z,99.40
2022-09-01T01:08:03.851Z,99.90
2022-09-01T01:10:33.941Z,99.90
2022-09-01T01:13:05.069Z,99.90
2022-09-01T01:15:32.555Z,99.90
2022-09-01T01:17:59.983Z,99.90
2022-09-01T03:07:01.855Z,99.90
2022-09-01T03:40:50.716Z,99.90
2022-09-01T03:48:10.783Z,99.90
2022-09-01T03:58:04.236Z,99.90
2022-09-01T05:17:45.295Z,99.90
2022-09-01T05:20:20.279Z,99.90
2022-09-01T05:22:59.529Z,99.90
2022-09-01T05:26:23.302Z,99.90
2022-09-01T05:29:06.549Z,99.90
2022-09-01T05:31:53.368Z,99.90
2022-09-01T05:34:39.574Z,99.90
2022-09-01T06:13:36.020Z,99.90
2022-09-01T06:46:14.478Z,99.90
2022-09-01T07:00:27.486Z,99.90
2022-09-01T07:03:13.483Z,99.90
2022-09-01T09:34:37.897Z,99.90
2022-09-01T09:49:54.929Z,99.90
2022-09-01T09:52:23.733Z,99.90
2022-09-01T09:58:16.841Z,99.50
2022-09-01T10:01:05.497Z,99.20
2022-09-01T10:04:11.494Z,98.50
2022-09-01T10:06:42.531Z,98.00
2022-09-01T10:09:17.012Z,98.50
2022-09-01T10:11:49.738Z,96.80
2022-09-01T10:14:35.382Z,95.50
2022-09-01T10:17:16.183Z,95.60
2022-09-01T10:20:21.419Z,96.30
2022-09-01T10:22:50.791Z,96.90
2022-09-01T10:25:29.189Z,96.20
2022-09-01T10:28:02.510Z,96.70
2022-09-01T10:30:31.260Z,96.20
2022-09-01T10:33:07.990Z,96.70
2022-09-01T10:35:45.575Z,95.60
2022-09-01T10:38:25.742Z,95.90
2022-09-01T10:41:08.866Z,95.80
2022-09-01T10:43:52.298Z,96.10
2022-09-01T10:46:26.708Z,95.10
2022-09-01T10:49:18.948Z,94.80
2022-09-01T10:51:56.656Z,94.30
2022-09-01T10:54:55.576Z,94.50
2022-09-01T10:57:42.572Z,93.40
2022-09-01T11:01:10.706Z,93.90
2022-09-01T11:03:52.188Z,92.50
2022-09-01T11:06:42.663Z,92.80
2022-09-01T11:09:25.094Z,91.60
2022-09-01T11:12:07.448Z,90.50
2022-09-01T11:14:46.923Z,87.20
2022-09-01T11:17:31.377Z,87.40
2022-09-01T11:20:09.355Z,84.10
2022-09-01T11:22:46.275Z,80.20
2022-09-01T11:25:42.485Z,79.60
2022-09-01T11:28:17.997Z,77.10
2022-09-01T11:31:06.801Z,77.80
2022-09-01T11:33:52.784Z,75.30
2022-09-01T11:36:29.490Z,76.50
2022-09-01T11:39:33.791Z,76.60
2022-09-01T11:42:07.271Z,75.40
2022-09-01T11:44:35.459Z,73.60
2022-09-01T11:47:17.373Z,71.30
2022-09-01T11:50:09.516Z,70.80
2022-09-01T11:52:39.222Z,70.00
2022-09-01T11:55:08.319Z,69.60
2022-09-01T11:57:39.320Z,68.00
2022-09-01T12:00:14.847Z,67.40
2022-09-01T12:02:50.595Z,66.40
2022-09-01T12:05:39.074Z,68.40
2022-09-01T12:08:14.666Z,65.70
2022-09-01T12:10:44.696Z,66.00
2022-09-01T12:13:24.018Z,66.80
2022-09-01T12:16:17.110Z,66.60
2022-09-01T12:18:51.615Z,65.40
2022-09-01T12:21:31.786Z,64.60
2022-09-01T12:24:19.775Z,65.20
2022-09-01T12:26:49.864Z,64.80
2022-09-01T12:29:18.271Z,65.30
2022-09-01T12:31:48.962Z,64.20
2022-09-01T12:34:38.903Z,64.50
2022-09-01T12:37:06.683Z,64.50
2022-09-01T12:39:43.348Z,64.30
2022-09-01T12:42:27.452Z,63.00
2022-09-01T12:45:14.786Z,63.20
2022-09-01T12:47:48.440Z,64.30
2022-09-01T12:50:17.272Z,64.50
2022-09-01T12:53:04.060Z,62.80
2022-09-01T12:55:49.976Z,61.70
2022-09-01T12:58:25.386Z,61.90
2022-09-01T13:01:03.441Z,61.90
2022-09-01T13:03:32.464Z,60.80
2022-09-01T13:06:03.975Z,61.40
2022-09-01T13:08:37.399Z,60.80
2022-09-01T13:11:15.489Z,59.70
2022-09-01T13:13:43.758Z,60.20
2022-09-01T13:16:13.289Z,59.80
2022-09-01T13:21:32.446Z,58.20
2022-09-01T13:23:59.768Z,58.80
2022-09-01T13:26:27.574Z,58.30
2022-09-01T13:28:54.829Z,58.90
2022-09-01T13:31:30.082Z,58.60
2022-09-01T13:34:21.752Z,58.20
2022-09-01T13:36:51.030Z,59.10
2022-09-01T13:39:19.342Z,60.20
2022-09-01T13:41:48.539Z,59.00
2022-09-01T13:44:17.292Z,59.30
2022-09-01T13:47:28.520Z,58.90
2022-09-01T13:52:21.942Z,59.00
2022-09-01T13:54:49.190Z,58.70
2022-09-01T13:57:16.851Z,57.60
2022-09-01T13:59:44.710Z,56.70
2022-09-01T14:02:12.005Z,58.10
2022-09-01T14:04:39.597Z,58.00
2022-09-01T14:07:07.276Z,58.30
2022-09-01T14:09:34.904Z,58.80
2022-09-01T14:12:02.342Z,58.80
2022-09-01T14:15:10.613Z,58.40
2022-09-01T14:17:17.489Z,58.30
2022-09-01T14:19:50.532Z,57.80
2022-09-01T14:22:17.939Z,58.40
2022-09-01T14:24:46.012Z,56.70
2022-09-01T14:27:13.530Z,56.80
2022-09-01T14:32:08.124Z,56.70
2022-09-01T14:34:36.596Z,57.30
2022-09-01T14:37:04.422Z,57.00
2022-09-01T14:39:32.019Z,58.90
2022-09-01T14:41:59.312Z,59.70
2022-09-01T14:44:26.654Z,61.00
2022-09-01T14:46:54.801Z,60.50
2022-09-01T14:49:22.635Z,61.30
2022-09-01T14:54:39.760Z,62.40
2022-09-01T14:59:54.593Z,61.70
2022-09-01T15:02:22.226Z,61.80
2022-09-01T15:04:49.956Z,61.70
2022-09-01T15:07:17.852Z,62.60
2022-09-01T15:09:45.513Z,62.20
2022-09-01T15:12:12.886Z,61.00
2022-09-01T15:14:40.172Z,60.70
2022-09-01T15:17:08.074Z,62.30
2022-09-01T15:19:35.611Z,62.50
2022-09-01T15:22:03.578Z,61.50
2022-09-01T15:24:30.816Z,60.70
2022-09-01T15:26:58.271Z,62.00
2022-09-01T15:29:25.891Z,61.60
2022-09-01T15:31:54.544Z,60.50
2022-09-01T15:34:24.548Z,62.10
2022-09-01T15:36:51.912Z,62.80
2022-09-01T15:39:19.331Z,63.60
2022-09-01T15:41:46.650Z,62.80
2022-09-01T15:44:13.863Z,62.30
2022-09-01T15:46:43.285Z,61.40
2022-09-01T15:49:12.718Z,61.50
2022-09-01T15:51:42.138Z,60.90
2022-09-01T15:54:18.637Z,62.00
2022-09-01T15:56:47.477Z,62.60
2022-09-01T15:59:15.548Z,61.80
2022-09-01T16:01:45.703Z,60.30
2022-09-01T16:04:20.008Z,59.00
2022-09-01T16:06:49.741Z,59.20
2022-09-01T16:09:18.773Z,59.10
2022-09-01T16:11:46.066Z,59.50
2022-09-01T16:14:14.393Z,59.60
2022-09-01T16:16:59.839Z,60.30
2022-09-01T16:19:46.097Z,59.10
2022-09-01T16:22:21.669Z,59.60
2022-09-01T16:24:51.909Z,59.10
2022-09-01T16:27:22.721Z,58.60
2022-09-01T16:29:56.343Z,58.70
2022-09-01T16:32:23.887Z,59.60
2022-09-01T16:34:52.284Z,59.80
2022-09-01T16:37:38.968Z,60.00
2022-09-01T16:40:37.976Z,59.70
2022-09-01T16:43:17.833Z,60.60
2022-09-01T16:45:48.239Z,61.30
2022-09-01T16:48:41.718Z,60.30
2022-09-01T16:51:32.074Z,61.00
2022-09-01T16:54:09.289Z,63.20
2022-09-01T16:56:55.334Z,62.20
2022-09-01T16:59:31.383Z,63.30
2022-09-01T17:02:43.992Z,64.10
2022-09-01T17:05:32.749Z,65.70
2022-09-01T17:08:23.547Z,66.80
2022-09-01T17:11:18.865Z,70.90
2022-09-01T17:13:55.605Z,68.50
2022-09-01T17:16:37.430Z,67.90
2022-09-01T17:19:13.871Z,68.90
2022-09-01T17:21:46.339Z,68.40
2022-09-01T17:24:46.562Z,69.50
2022-09-01T17:27:34.127Z,70.90
2022-09-01T17:30:07.372Z,70.30
2022-09-01T17:32:48.122Z,69.30
2022-09-01T17:35:32.735Z,67.50
2022-09-01T17:38:14.209Z,66.80
2022-09-01T17:40:41.475Z,70.00
2022-09-01T17:43:27.446Z,72.50
2022-09-01T17:46:20.496Z,73.40
2022-09-01T17:49:11.119Z,74.20
2022-09-01T17:51:52.972Z,73.10
2022-09-01T17:54:44.354Z,72.50
2022-09-01T17:57:33.367Z,74.90
2022-09-01T18:00:34.260Z,78.60
2022-09-01T18:03:10.899Z,77.70
2022-09-01T18:05:46.264Z,77.40
2022-09-01T18:08:29.941Z,79.10
2022-09-01T18:11:06.753Z,81.50
2022-09-01T18:14:02.401Z,81.10
2022-09-01T18:16:35.107Z,83.80
2022-09-01T18:19:16.631Z,86.30
2022-09-01T18:21:56.740Z,87.00
2022-09-01T18:24:34.377Z,85.40
2022-09-01T18:27:02.000Z,84.00
2022-09-01T18:29:31.762Z,84.30
2022-09-01T18:32:12.031Z,84.40
2022-09-01T18:35:00.951Z,84.40
2022-09-01T18:37:49.745Z,84.10
2022-09-01T18:40:33.786Z,84.90
2022-09-01T18:43:18.198Z,87.00
2022-09-01T18:46:04.193Z,87.90
2022-09-01T18:48:51.653Z,87.40
2022-09-01T18:51:45.331Z,88.30
2022-09-01T18:54:38.266Z,89.00
2022-09-01T18:57:08.013Z,90.00
2022-09-01T18:59:53.904Z,90.70
2022-09-01T19:02:27.536Z,91.00
2022-09-01T19:05:17.205Z,91.20
2022-09-01T19:08:06.467Z,91.20
2022-09-01T19:10:37.362Z,91.40
2022-09-01T19:13:28.782Z,91.80
2022-09-01T19:16:31.482Z,92.10
2022-09-01T19:19:33.517Z,91.00
2022-09-01T19:22:02.645Z,88.00
2022-09-01T19:24:47.029Z,85.30
2022-09-01T19:27:20.739Z,86.40
2022-09-01T19:29:53.816Z,86.50
2022-09-01T19:32:24.309Z,84.80
2022-09-01T19:35:14.669Z,87.80
2022-09-01T19:37:45.642Z,82.70
2022-09-01T19:40:24.103Z,81.90
2022-09-01T19:43:16.319Z,80.20
2022-09-01T19:57:33.334Z,78.80
2022-09-01T20:00:19.492Z,78.70
2022-09-01T20:02:50.152Z,78.50
2022-09-01T20:08:40.024Z,79.10
